CYRL

Red Lake Airport

Red Lake, Ontario, Canada
METAR CYRL 240200Z 14006KT 10SM -RASN OVC050 02/00 A3015 RMK SC8 LAST STFD OBS/NEXT 240900 UTC WND ESTD SLP232
Observed Flight Rules
Sep-24 @ 02:00 UTC (2 hours ago) Visual Flight Rules
Wind Visibility Clouds Conditions
140° at 6 knots 10 miles
  • Overcast at 5,000' AGL
  • Light Rain
  • Light Snow
Temperatures Readings
Current 2°C / 36°F
Dewpoint 0°C / 32°F
Humidity 87%
Altimeter 30.15" Hg
Pressure 1023.2 hPa
Elevation 383
METAR CYRL 240200Z 14006KT 10SM -RASN OVC050 02/00 A3015 RMK SC8 LAST STFD OBS/NEXT 240900 UTC WND ESTD SLP232
Observed Flight Rules
Sep-24 @ 02:00 UTC
(2 hours ago)
VFR
Wind Visibility
140° at 6 knots 10 miles
Clouds
  • Overcast at 5,000' AGL
Conditions
  • Light Rain
  • Light Snow
Temperature Dewpoint
2°C / 36°F 0°C / 32°F
Humidity Altimeter Pressure
87% 30.15" Hg 1023.2 hPa